Time;durP1;ratioP1;P1;durP2;ratioP2;P2;SDS_P1;SDS_P2;PMS_P1;PMS_P2;Temp;Humidity;BMP_temperature;BMP_pressure;BME280_temperature;BME280_humidity;BME280_pressure;Samples;Min_cycle;Max_cycle;Signal;HPM_P1;HPM_P2
2023/11/29 00:00:22;;;;;;;0.20;0.20;;;;;;;9.73;100.00;74821.56;6303832;22;19991;-81
2023/11/29 00:03:13;;;;;;;0.30;0.30;;;;;;;9.40;100.00;74783.34;6301922;22;20003;-81
2023/11/29 00:05:45;;;;;;;0.25;0.25;;;;;;;9.59;100.00;74804.84;6254988;22;20039;-80
2023/11/29 00:08:15;;;;;;;0.20;0.20;;;;;;;9.58;100.00;74798.13;6299526;22;20011;-81
2023/11/29 00:10:42;;;;;;;0.30;0.30;;;;;;;9.72;100.00;74820.38;6275610;22;19996;-81
2023/11/29 00:13:20;;;;;;;0.20;0.20;;;;;;;9.81;100.00;74830.53;6278371;22;20003;-81
2023/11/29 00:16:25;;;;;;;0.30;0.30;;;;;;;9.79;100.00;74833.66;6282164;22;20000;-81
2023/11/29 00:19:09;;;;;;;0.30;0.30;;;;;;;9.57;100.00;74803.03;6279855;22;20038;-81
2023/11/29 00:22:14;;;;;;;0.30;0.30;;;;;;;9.63;100.00;74809.63;6278637;22;20003;-81
2023/11/29 00:25:13;;;;;;;0.20;0.20;;;;;;;9.60;100.00;74806.03;6288977;22;20004;-81
2023/11/29 00:28:25;;;;;;;0.30;0.30;;;;;;;9.69;100.00;74819.53;6305257;22;20000;-81
2023/11/29 00:31:01;;;;;;;0.30;0.30;;;;;;;9.69;100.00;74814.00;6278475;22;20008;-81
2023/11/29 00:33:40;;;;;;;0.20;0.20;;;;;;;10.13;100.00;74868.13;6290775;22;19995;-81
2023/11/29 00:37:26;;;;;;;0.20;0.20;;;;;;;9.74;100.00;74828.25;6255590;22;20007;-81
2023/11/29 00:40:53;;;;;;;0.20;0.20;;;;;;;9.86;100.00;74837.09;6300991;22;20014;-81
2023/11/29 00:44:05;;;;;;;0.30;0.30;;;;;;;9.83;100.00;74839.03;6220046;23;20011;-81
2023/11/29 00:54:15;;;;;;;0.20;0.20;;;;;;;9.97;100.00;74850.22;6243607;23;20011;-81
2023/11/29 00:57:11;;;;;;;0.20;0.20;;;;;;;9.71;100.00;74821.94;6122376;23;20022;-81
2023/11/29 00:59:42;;;;;;;0.25;0.25;;;;;;;10.00;100.00;74858.13;6186759;23;20028;-81
2023/11/29 01:02:55;;;;;;;0.20;0.20;;;;;;;10.30;100.00;74888.47;6236505;23;20052;-81
2023/11/29 01:06:33;;;;;;;0.20;0.20;;;;;;;10.30;100.00;74894.00;6153520;23;20041;-82
2023/11/29 01:09:42;;;;;;;0.20;0.20;;;;;;;10.10;100.00;74867.91;6129228;23;20006;-81
2023/11/29 01:12:54;;;;;;;0.20;0.20;;;;;;;9.55;100.00;74800.66;6148483;23;20058;-82
2023/11/29 01:16:18;;;;;;;0.20;0.20;;;;;;;9.97;100.00;74850.22;6129154;23;20028;-82
2023/11/29 01:19:40;;;;;;;0.30;0.30;;;;;;;10.07;100.00;74867.09;6152181;23;20029;-82
2023/11/29 01:26:22;;;;;;;0.20;0.20;;;;;;;9.84;100.00;74834.09;6070734;23;20038;-81
2023/11/29 02:20:04;;;;;;;0.30;0.30;;;;;;;10.08;100.00;74864.94;6304261;22;20015;-80
2023/11/29 02:22:54;;;;;;;0.30;0.30;;;;;;;9.57;100.00;74802.44;6275172;22;20010;-81
2023/11/29 02:25:27;;;;;;;0.30;0.30;;;;;;;10.03;100.00;74856.78;6267671;23;20008;-81
2023/11/29 02:28:27;;;;;;;0.20;0.20;;;;;;;10.07;100.00;74863.75;6220135;23;20068;-81
2023/11/29 02:30:53;;;;;;;0.30;0.30;;;;;;;9.66;100.00;74813.81;6243518;23;20012;-81
2023/11/29 02:34:07;;;;;;;0.30;0.30;;;;;;;9.45;100.00;74794.25;6220541;23;20004;-80
2023/11/29 02:36:55;;;;;;;0.20;0.20;;;;;;;9.98;100.00;74850.81;6263171;23;20008;-81
2023/11/29 02:39:35;;;;;;;0.20;0.20;;;;;;;9.73;100.00;74821.56;6221315;23;20015;-80
2023/11/29 02:42:20;;;;;;;0.20;0.20;;;;;;;9.73;100.00;74818.78;6244567;23;20054;-81
2023/11/29 02:45:01;;;;;;;0.30;0.30;;;;;;;9.83;100.00;74835.66;6211745;23;20009;-81
2023/11/29 02:47:41;;;;;;;0.20;0.20;;;;;;;9.96;100.00;74849.03;6182625;23;20009;-81
2023/11/29 02:50:37;;;;;;;0.20;0.20;;;;;;;9.66;100.00;74813.81;6208976;23;20042;-80
2023/11/29 02:53:24;;;;;;;0.20;0.20;;;;;;;9.64;100.00;74811.41;6212040;23;20068;-81
2023/11/29 02:56:40;;;;;;;0.20;0.20;;;;;;;9.66;100.00;74815.97;6211341;23;20008;-81
2023/11/29 02:59:32;;;;;;;0.20;0.20;;;;;;;9.53;100.00;74798.28;6210173;23;20032;-81
2023/11/29 03:02:16;;;;;;;0.30;0.30;;;;;;;9.66;100.00;74818.72;6164708;23;20091;-81
2023/11/29 03:05:51;;;;;;;0.20;0.20;;;;;;;9.47;100.00;74791.09;6178485;23;20009;-81
2023/11/29 03:08:40;;;;;;;0.30;0.30;;;;;;;10.05;100.00;74859.16;6208086;23;20001;-81
2023/11/29 03:11:31;;;;;;;0.30;0.30;;;;;;;9.84;100.00;74834.09;6212726;23;20008;-81
2023/11/29 03:14:06;;;;;;;0.30;0.30;;;;;;;9.60;100.00;74806.63;6186846;23;20048;-81
2023/11/29 03:16:58;;;;;;;0.22;0.22;;;;;;;9.41;100.00;74790.06;6237041;23;20035;-81
2023/11/29 03:19:58;;;;;;;0.30;0.30;;;;;;;10.05;100.00;74855.81;6217192;23;20039;-81
2023/11/29 03:23:03;;;;;;;0.20;0.20;;;;;;;10.03;100.00;74858.97;6177479;23;20204;-81
2023/11/29 03:26:10;;;;;;;0.20;0.20;;;;;;;10.10;100.00;74870.66;6141065;23;20021;-81
2023/11/29 03:29:04;;;;;;;0.20;0.20;;;;;;;10.07;100.00;74860.97;6150866;23;20000;-81
2023/11/29 03:31:49;;;;;;;0.20;0.20;;;;;;;9.86;100.00;74837.09;6105539;23;20006;-81
2023/11/29 03:34:19;;;;;;;0.20;0.20;;;;;;;9.75;100.00;74826.09;6153000;23;20010;-81
2023/11/29 03:37:01;;;;;;;0.20;0.20;;;;;;;9.78;100.00;74830.28;6151861;23;20016;-81
2023/11/29 03:39:35;;;;;;;0.20;0.20;;;;;;;9.82;100.00;74832.31;6126079;23;19990;-81
2023/11/29 03:42:13;;;;;;;0.30;0.30;;;;;;;9.45;100.00;74794.84;6131080;23;19996;-80
2023/11/29 03:44:52;;;;;;;0.30;0.30;;;;;;;9.48;100.00;74788.94;6142202;23;19990;-81
2023/11/29 03:47:23;;;;;;;0.30;0.30;;;;;;;9.39;100.00;74781.56;6094585;23;20010;-81
2023/11/29 03:50:35;;;;;;;0.30;0.30;;;;;;;9.90;100.00;74841.84;6133138;23;19997;-81
2023/11/29 03:53:16;;;;;;;0.22;0.22;;;;;;;9.22;100.00;74761.28;6179086;23;20005;-81
2023/11/29 03:56:24;;;;;;;0.30;0.30;;;;;;;9.56;100.00;74799.09;6205121;23;20035;-81
2023/11/29 03:59:13;;;;;;;0.30;0.30;;;;;;;9.68;100.00;74815.59;6233679;23;20019;-81
2023/11/29 04:02:25;;;;;;;0.28;0.28;;;;;;;9.43;100.00;74789.69;6225218;23;20032;-81
2023/11/29 04:05:13;;;;;;;0.30;0.30;;;;;;;9.64;100.00;74813.56;6200776;23;20072;-81
2023/11/29 04:07:44;;;;;;;0.30;0.30;;;;;;;9.70;100.00;74815.81;6217023;23;20051;-81
2023/11/29 04:11:18;;;;;;;0.30;0.30;;;;;;;9.81;100.00;74833.28;6242715;23;20044;-81
2023/11/29 04:14:51;;;;;;;0.28;0.28;;;;;;;9.23;100.00;74768.59;6242307;23;20021;-81
2023/11/29 04:17:51;;;;;;;0.22;0.22;;;;;;;9.43;100.00;74786.94;6241265;23;20011;-81
2023/11/29 04:20:23;;;;;;;0.20;0.20;;;;;;;9.39;100.00;74782.16;6196773;23;20019;-81
2023/11/29 04:23:27;;;;;;;0.20;0.20;;;;;;;9.78;100.00;74832.44;6264004;22;20034;-81
2023/11/29 04:26:36;;;;;;;0.20;0.20;;;;;;;9.23;100.00;74763.06;6261073;23;20000;-81
2023/11/29 04:29:20;;;;;;;0.20;0.20;;;;;;;9.48;100.00;74797.22;6268059;23;19996;-81
2023/11/29 04:32:17;;;;;;;0.30;0.30;;;;;;;9.24;100.00;74766.41;6240034;23;20546;-81
2023/11/29 04:35:23;;;;;;;0.25;0.25;;;;;;;9.13;100.00;74757.25;6270861;23;20055;-81
2023/11/29 04:38:04;;;;;;;0.20;0.20;;;;;;;9.50;100.00;74802.38;6175606;23;19992;-81
2023/11/29 04:40:56;;;;;;;0.20;0.20;;;;;;;9.29;100.00;74775.16;6273551;22;20018;-81
2023/11/29 04:43:35;;;;;;;;;;;;;;;9.51;100.00;74795.28;6272908;23;20015;-81
2023/11/29 04:48:58;;;;;;;0.22;0.22;;;;;;;9.34;100.00;74776.19;6273312;23;20067;-81
2023/11/29 04:51:26;;;;;;;0.30;0.30;;;;;;;9.11;100.00;74748.75;6218584;23;20008;-81
2023/11/29 04:53:54;;;;;;;0.30;0.30;;;;;;;8.93;100.00;74725.69;6269485;23;20004;-81
2023/11/29 04:56:28;;;;;;;0.30;0.30;;;;;;;9.38;100.00;74783.13;6216946;23;20044;-81
2023/11/29 04:59:20;;;;;;;0.20;0.20;;;;;;;9.15;100.00;74756.25;6269895;23;19984;-81
2023/11/29 05:02:32;;;;;;;0.20;0.20;;;;;;;8.95;100.00;74730.25;6271198;23;20063;-82
2023/11/29 05:05:27;;;;;;;0.30;0.30;;;;;;;9.30;100.00;74774.19;6272494;23;20051;-81
2023/11/29 05:08:10;;;;;;;0.30;0.30;;;;;;;9.18;100.00;74763.22;6242092;23;20215;-81
2023/11/29 05:10:42;;;;;;;;;;;;;;;9.35;100.00;74774.63;6268436;23;20008;-81
2023/11/29 05:13:34;;;;;;;0.30;0.30;;;;;;;8.96;100.00;74736.38;6264847;23;19930;-81
2023/11/29 05:16:20;;;;;;;0.30;0.30;;;;;;;8.71;100.00;74704.38;6243975;23;20399;-81
2023/11/29 05:19:06;;;;;;;0.20;0.20;;;;;;;8.83;100.00;74716.50;6269097;23;20063;-81
2023/11/29 05:21:40;;;;;;;0.22;0.22;;;;;;;8.78;100.00;74710.53;6240303;23;20436;-82
2023/11/29 05:24:06;;;;;;;0.30;0.30;;;;;;;8.87;100.00;74720.69;6271051;22;20004;-81
2023/11/29 05:26:52;;;;;;;0.20;0.20;;;;;;;8.72;100.00;74703.38;6269867;23;20004;-81
2023/11/29 05:29:26;;;;;;;0.30;0.30;;;;;;;8.69;100.00;74699.22;6233052;23;20053;-81
2023/11/29 05:31:58;;;;;;;0.20;0.20;;;;;;;8.91;100.00;74726.06;6269981;23;20008;-81
2023/11/29 05:35:07;;;;;;;0.20;0.20;;;;;;;9.06;100.00;74742.78;6269998;23;20016;-81
2023/11/29 05:37:39;;;;;;;0.30;0.30;;;;;;;8.89;100.00;74726.44;6271434;23;20024;-81
2023/11/29 05:40:09;;;;;;;0.20;0.20;;;;;;;9.06;100.00;74745.53;6266148;23;20008;-81
2023/11/29 05:42:53;;;;;;;0.30;0.30;;;;;;;8.61;100.00;74695.78;6269653;23;20008;-81
2023/11/29 05:45:22;;;;;;;0.30;0.30;;;;;;;8.84;100.00;74714.34;6244415;23;19996;-81
2023/11/29 05:48:17;;;;;;;0.30;0.30;;;;;;;9.08;100.00;74745.16;6271367;23;20459;-81
2023/11/29 05:50:44;;;;;;;0.30;0.30;;;;;;;8.76;100.00;74705.41;6260042;23;20004;-81
2023/11/29 05:53:34;;;;;;;0.30;0.30;;;;;;;8.85;100.00;74726.59;6236763;23;20074;-81
2023/11/29 05:56:01;;;;;;;0.30;0.30;;;;;;;8.95;100.00;74735.78;6247827;23;20008;-81
2023/11/29 05:58:33;;;;;;;0.30;0.30;;;;;;;8.49;100.00;74678.72;6236613;23;20099;-81
2023/11/29 06:01:01;;;;;;;0.30;0.30;;;;;;;8.62;100.00;74691.47;6218355;23;20009;-81
2023/11/29 06:03:31;;;;;;;0.30;0.30;;;;;;;8.68;100.00;74704.13;6242780;23;19992;-81
2023/11/29 06:06:00;;;;;;;0.30;0.30;;;;;;;8.39;100.00;74670.13;6242924;23;20019;-81
2023/11/29 06:08:40;;;;;;;0.30;0.30;;;;;;;8.75;100.00;74706.97;6242621;23;20031;-81
2023/11/29 06:11:18;;;;;;;0.20;0.20;;;;;;;8.42;100.00;74667.63;6244192;23;20004;-81
2023/11/29 06:13:57;;;;;;;0.30;0.30;;;;;;;8.56;100.00;74690.41;6270236;23;20000;-81
2023/11/29 06:17:08;;;;;;;0.30;0.30;;;;;;;8.35;100.00;74665.94;6269604;23;20004;-82
2023/11/29 06:19:44;;;;;;;0.20;0.20;;;;;;;8.94;100.00;74729.03;6242504;23;19996;-81
2023/11/29 06:22:13;;;;;;;0.30;0.30;;;;;;;8.63;100.00;74693.25;6267942;22;20075;-81
2023/11/29 06:24:39;;;;;;;0.30;0.30;;;;;;;8.58;100.00;74689.47;6242816;23;20019;-81
2023/11/29 06:27:19;;;;;;;0.30;0.30;;;;;;;9.06;100.00;74742.78;6241766;23;20004;-82
2023/11/29 06:30:31;;;;;;;0.30;0.30;;;;;;;8.52;100.00;74679.53;6245759;23;20024;-83
2023/11/29 06:33:37;;;;;;;0.30;0.30;;;;;;;9.65;100.00;74809.25;6242053;23;19995;-83
2023/11/29 06:43:23;;;;;;;0.20;0.20;;;;;;;11.16;100.00;74988.81;6182722;23;20069;-82
2023/11/29 06:46:42;;;;;;;0.30;0.30;;;;;;;12.19;100.00;75109.59;6157067;23;20058;-82
2023/11/29 07:08:28;;;;;;;0.30;0.30;;;;;;;15.13;88.33;75455.06;6276777;22;20018;-84
2023/11/29 07:10:58;;;;;;;0.20;0.20;;;;;;;15.68;83.99;75520.41;6273555;22;20336;-86
2023/11/29 07:13:24;;;;;;;0.20;0.20;;;;;;;15.79;82.61;75526.84;6246222;22;20007;-86
2023/11/29 07:15:55;;;;;;;0.20;0.20;;;;;;;15.88;82.10;75537.63;6246075;22;20004;-86
2023/11/29 07:18:21;;;;;;;0.20;0.20;;;;;;;16.55;77.47;75618.97;6245944;22;20331;-85
2023/11/29 07:20:46;;;;;;;0.20;0.20;;;;;;;16.64;76.18;75627.56;6245839;22;20078;-87
2023/11/29 07:23:12;;;;;;;0.20;0.20;;;;;;;17.21;74.32;75694.78;6216815;22;20043;-88
2023/11/29 07:25:37;;;;;;;0.20;0.20;;;;;;;17.70;69.93;75749.59;6240979;23;20019;-85
2023/11/29 07:28:03;;;;;;;0.20;0.20;;;;;;;16.02;77.06;75554.41;6215684;23;20012;-85
2023/11/29 07:30:28;;;;;;;0.20;0.20;;;;;;;15.17;85.00;75459.84;6216598;23;20428;-85
2023/11/29 07:32:53;;;;;;;0.20;0.20;;;;;;;14.24;91.14;75347.44;6217422;23;20004;-85
2023/11/29 07:35:19;;;;;;;0.20;0.20;;;;;;;13.66;97.63;75279.78;6244130;23;20012;-86
2023/11/29 07:37:45;;;;;;;0.20;0.20;;;;;;;13.26;100.00;75230.31;6244169;23;20031;-86
2023/11/29 07:40:10;;;;;;;0.20;0.20;;;;;;;13.39;98.13;75250.81;6217362;23;20008;-86
2023/11/29 07:42:36;;;;;;;0.20;0.20;;;;;;;12.96;100.00;75197.75;6244153;23;20293;-86
2023/11/29 07:45:01;;;;;;;0.20;0.20;;;;;;;12.45;100.00;75140.09;6217795;23;20144;-87
2023/11/29 07:47:27;;;;;;;0.20;0.20;;;;;;;12.55;100.00;75152.66;6242446;23;20007;-86
2023/11/29 07:49:55;;;;;;;0.20;0.20;;;;;;;12.46;100.00;75130.81;6217968;23;20079;-86
2023/11/29 07:52:20;;;;;;;0.20;0.20;;;;;;;12.26;100.00;75112.44;6218160;23;20317;-85
2023/11/29 07:54:46;;;;;;;0.20;0.20;;;;;;;12.19;100.00;75109.59;6218856;23;20011;-85
2023/11/29 07:57:12;;;;;;;0.20;0.20;;;;;;;12.44;100.00;75139.50;6217708;23;20000;-85
2023/11/29 07:59:37;;;;;;;0.20;0.20;;;;;;;12.69;100.00;75166.06;6245613;23;20004;-85
2023/11/29 08:02:03;;;;;;;0.20;0.20;;;;;;;12.45;100.00;75143.47;6217662;23;20003;-84
2023/11/29 08:04:29;;;;;;;0.20;0.20;;;;;;;12.67;100.00;75160.88;6217921;23;20063;-83
2023/11/29 08:06:55;;;;;;;0.20;0.20;;;;;;;12.77;100.00;75172.84;6219256;23;20012;-82
2023/11/29 08:15:46;;;;;;;0.20;0.20;;;;;;;13.16;100.00;75220.50;6245848;22;20019;-83
2023/11/29 08:18:12;;;;;;;0.20;0.20;;;;;;;13.33;100.00;75238.69;6217958;23;20087;-85
2023/11/29 08:20:37;;;;;;;0.20;0.20;;;;;;;13.14;100.00;75215.31;6217618;23;20079;-85
2023/11/29 08:23:03;;;;;;;0.20;0.20;;;;;;;12.97;100.00;75196.19;6217537;23;20024;-85
2023/11/29 08:25:28;;;;;;;0.20;0.20;;;;;;;13.16;100.00;75221.09;6217960;23;20008;-85
2023/11/29 08:27:54;;;;;;;0.20;0.20;;;;;;;13.39;100.00;75250.81;6217259;23;20429;-85
2023/11/29 08:30:19;;;;;;;0.20;0.20;;;;;;;13.19;100.00;75226.88;6245507;23;20468;-82
2023/11/29 08:32:45;;;;;;;0.20;0.20;;;;;;;13.33;100.00;75244.25;6218331;23;20012;-83
2023/11/29 08:35:11;;;;;;;0.20;0.20;;;;;;;13.13;100.00;75217.50;6244856;23;20027;-85
2023/11/29 08:37:37;;;;;;;0.20;0.20;;;;;;;13.45;96.02;75257.41;6244639;23;20081;-84
2023/11/29 08:40:03;;;;;;;0.20;0.20;;;;;;;13.68;99.67;75278.78;6217198;23;20008;-85
2023/11/29 08:42:32;;;;;;;0.30;0.30;;;;;;;13.69;96.44;75279.97;6216392;23;20482;-85
2023/11/29 08:44:58;;;;;;;0.20;0.20;;;;;;;13.54;98.39;75268.19;6242135;23;20436;-85
2023/11/29 08:47:24;;;;;;;0.20;0.20;;;;;;;13.54;98.60;75268.19;6216787;23;20024;-85
2023/11/29 08:49:49;;;;;;;0.20;0.20;;;;;;;13.86;98.60;75305.91;6217087;23;20412;-85
2023/11/29 08:52:15;;;;;;;0.20;0.20;;;;;;;13.50;100.00;75258.44;6216819;23;20257;-86
2023/11/29 08:54:40;;;;;;;0.20;0.20;;;;;;;13.87;100.00;75307.09;6217132;23;20428;-85
2023/11/29 08:57:06;;;;;;;0.20;0.20;;;;;;;13.69;100.00;75283.38;6216753;23;20084;-85
2023/11/29 08:59:31;;;;;;;0.20;0.20;;;;;;;13.65;100.00;75280.75;6217467;23;20489;-86
2023/11/29 09:01:57;;;;;;;0.20;0.20;;;;;;;13.34;100.00;75242.66;6216907;23;20091;-85
2023/11/29 09:04:22;;;;;;;0.20;0.20;;;;;;;13.56;99.43;75265.03;6216858;23;20023;-85
2023/11/29 09:06:48;;;;;;;0.20;0.20;;;;;;;13.41;98.22;75250.44;6217512;23;20342;-85
2023/11/29 09:09:14;;;;;;;0.20;0.20;;;;;;;13.32;100.00;75239.69;6245232;23;20000;-82
2023/11/29 09:11:43;;;;;;;0.20;0.20;;;;;;;13.41;100.00;75247.66;6221329;23;20099;-81
2023/11/29 09:31:03;;;;;;;0.20;0.20;;;;;;;14.00;100.00;75319.88;6277015;22;20018;-84
2023/11/29 09:33:29;;;;;;;0.30;0.30;;;;;;;14.24;100.00;75345.25;6249531;22;20301;-86
2023/11/29 09:35:55;;;;;;;0.20;0.20;;;;;;;14.47;100.00;75377.78;6248160;22;20027;-85
2023/11/29 09:38:20;;;;;;;0.20;0.20;;;;;;;14.21;100.00;75349.41;6274531;22;19999;-86
2023/11/29 09:40:46;;;;;;;0.20;0.20;;;;;;;14.30;100.00;75351.84;6248160;22;20083;-86
2023/11/29 09:43:14;;;;;;;0.20;0.20;;;;;;;14.44;100.00;75368.63;6248224;22;20031;-85
2023/11/29 09:45:40;;;;;;;0.20;0.20;;;;;;;14.34;100.00;75353.84;6247440;22;20321;-85
2023/11/29 09:48:05;;;;;;;0.20;0.20;;;;;;;14.51;100.00;75382.56;6246991;22;20056;-85
2023/11/29 09:50:32;;;;;;;0.20;0.20;;;;;;;14.22;100.00;75339.47;6246725;22;20432;-85
2023/11/29 09:52:58;;;;;;;0.20;0.20;;;;;;;13.93;100.00;75314.28;6246837;22;20008;-85
2023/11/29 09:55:27;;;;;;;0.20;0.20;;;;;;;13.88;100.00;75302.72;6246820;22;20084;-86
2023/11/29 09:57:53;;;;;;;0.20;0.20;;;;;;;14.96;100.00;75429.72;6272165;22;20011;-86
2023/11/29 10:00:19;;;;;;;0.20;0.20;;;;;;;15.59;100.00;75509.59;6272685;22;20038;-85
2023/11/29 10:02:44;;;;;;;0.20;0.20;;;;;;;16.46;91.45;75612.16;6246486;22;20004;-85
2023/11/29 10:05:17;;;;;;;0.20;0.20;;;;;;;16.12;71.29;75569.19;6273889;22;20335;-86
2023/11/29 10:07:42;;;;;;;0.20;0.20;;;;;;;16.30;66.44;75589.56;6273968;22;20011;-86
2023/11/29 10:10:10;;;;;;;0.20;0.20;;;;;;;17.05;56.44;75675.59;6272215;22;20004;-86
2023/11/29 10:12:40;;;;;;;0.20;0.20;;;;;;;16.47;54.99;75607.19;6273668;22;20262;-85
2023/11/29 10:15:08;;;;;;;0.20;0.20;;;;;;;16.94;52.65;75659.59;6272034;22;20412;-87
2023/11/29 10:17:33;;;;;;;0.20;0.20;;;;;;;17.40;51.73;75719.16;6271809;22;20018;-86
2023/11/29 10:19:59;;;;;;;0.20;0.20;;;;;;;17.69;52.20;75751.19;6246944;22;20392;-85
2023/11/29 10:22:25;;;;;;;0.20;0.20;;;;;;;17.33;51.39;75710.78;6271857;22;20003;-85
2023/11/29 10:24:51;;;;;;;0.20;0.20;;;;;;;17.06;52.83;75679.56;6246276;22;20008;-85
2023/11/29 10:27:18;;;;;;;0.20;0.20;;;;;;;16.53;67.68;75613.78;6273255;22;20456;-85
2023/11/29 10:29:44;;;;;;;0.20;0.20;;;;;;;16.01;75.40;75552.59;6273722;22;20082;-85
2023/11/29 10:32:10;;;;;;;0.20;0.20;;;;;;;15.79;79.38;75527.44;6273489;22;20007;-85
2023/11/29 10:34:36;;;;;;;0.20;0.20;;;;;;;15.78;81.56;75531.22;6273930;22;20003;-86
2023/11/29 10:37:06;;;;;;;0.20;0.20;;;;;;;15.50;85.74;75492.63;6273501;22;20048;-85
2023/11/29 10:39:37;;;;;;;0.20;0.20;;;;;;;15.17;90.25;75452.09;6273940;22;19999;-85
2023/11/29 10:42:08;;;;;;;0.20;0.20;;;;;;;14.76;93.07;75411.34;6273783;22;20035;-86
2023/11/29 10:47:58;;;;;;;0.30;0.30;;;;;;;14.73;95.68;75402.16;6274840;22;20027;-85
2023/11/29 10:50:24;;;;;;;0.20;0.20;;;;;;;14.60;95.70;75387.81;6274391;22;20008;-84
2023/11/29 10:52:50;;;;;;;0.20;0.20;;;;;;;14.42;95.50;75366.19;6274654;22;20011;-84
2023/11/29 11:06:35;;;;;;;0.20;0.20;;;;;;;14.10;97.37;75329.06;6153105;23;20033;-82
2023/11/29 11:10:00;;;;;;;0.20;0.20;;;;;;;13.96;98.46;75314.50;6097447;23;20026;-82
2023/11/29 11:50:47;;;;;;;0.20;0.20;;;;;;;13.84;100.00;75303.50;6255205;22;20039;-81
2023/11/29 12:03:22;;;;;;;0.20;0.20;;;;;;;14.37;93.15;75363.00;6254105;23;20027;-82
2023/11/29 12:05:48;;;;;;;0.20;0.20;;;;;;;14.33;92.48;75355.44;6245604;23;20043;-83
2023/11/29 12:08:14;;;;;;;0.20;0.20;;;;;;;14.41;91.22;75370.56;6245581;23;20011;-85
2023/11/29 12:10:42;;;;;;;0.20;0.20;;;;;;;14.78;90.48;75410.94;6244371;23;20000;-84
2023/11/29 12:13:09;;;;;;;0.20;0.20;;;;;;;15.17;86.67;75454.88;6243643;23;20413;-82
2023/11/29 12:15:35;;;;;;;0.20;0.20;;;;;;;14.87;85.48;75427.31;6245633;23;20035;-84
2023/11/29 12:18:00;;;;;;;0.20;0.20;;;;;;;15.49;84.29;75494.81;6242302;23;20005;-86
2023/11/29 12:20:26;;;;;;;0.20;0.20;;;;;;;15.45;82.48;75487.84;6217121;23;20373;-86
2023/11/29 12:22:51;;;;;;;0.20;0.20;;;;;;;15.46;77.00;75488.44;6244305;23;20311;-85
2023/11/29 12:25:22;;;;;;;0.20;0.20;;;;;;;15.46;78.36;75488.44;6243907;23;20054;-85
2023/11/29 12:27:51;;;;;;;0.20;0.20;;;;;;;15.36;79.12;75482.03;6217001;23;20015;-85
2023/11/29 12:30:17;;;;;;;0.20;0.20;;;;;;;14.76;78.13;75408.56;6243930;23;20019;-85
2023/11/29 12:32:43;;;;;;;0.20;0.20;;;;;;;15.43;78.70;75487.63;6217246;23;20506;-85
2023/11/29 12:35:10;;;;;;;0.20;0.20;;;;;;;14.91;77.03;75429.28;6243938;23;20228;-85
2023/11/29 12:37:42;;;;;;;0.20;0.20;;;;;;;15.44;75.67;75491.63;6217292;23;20008;-85
2023/11/29 12:40:11;;;;;;;0.20;0.20;;;;;;;15.42;74.99;75480.88;6218268;23;20083;-85
2023/11/29 12:42:36;;;;;;;0.20;0.20;;;;;;;15.05;74.38;75440.50;6243862;23;19997;-85
2023/11/29 12:45:02;;;;;;;0.20;0.20;;;;;;;14.99;76.23;75432.72;6216646;23;20004;-85
2023/11/29 12:47:30;;;;;;;0.20;0.20;;;;;;;14.74;77.81;75406.16;6216684;23;20004;-85
2023/11/29 12:49:55;;;;;;;0.20;0.20;;;;;;;15.53;77.14;75496.84;6217577;23;20015;-85
2023/11/29 12:52:21;;;;;;;0.20;0.20;;;;;;;15.79;75.15;75532.41;6216660;23;20303;-85
2023/11/29 12:54:46;;;;;;;0.20;0.20;;;;;;;15.64;72.09;75510.03;6216358;23;20051;-85
2023/11/29 12:57:12;;;;;;;0.20;0.20;;;;;;;15.32;73.16;75472.25;6243706;23;20058;-85
2023/11/29 12:59:38;;;;;;;0.20;0.20;;;;;;;15.72;72.16;75516.25;6216976;23;20008;-85
2023/11/29 13:12:15;;;;;;;0.20;0.20;;;;;;;15.58;67.44;75505.03;6246988;23;20566;-85
2023/11/29 13:31:31;;;;;;;0.20;0.20;;;;;;;15.31;67.23;75473.25;6252070;23;20035;-84
2023/11/29 13:33:57;;;;;;;0.20;0.20;;;;;;;15.35;67.87;75475.28;6244729;23;20008;-85
2023/11/29 13:36:22;;;;;;;0.20;0.20;;;;;;;15.02;68.80;75434.16;6217286;23;20011;-84
2023/11/29 13:38:51;;;;;;;0.20;0.20;;;;;;;15.06;70.34;75449.47;6246202;23;20024;-85
2023/11/29 13:41:17;;;;;;;0.20;0.20;;;;;;;15.06;68.95;75441.69;6217496;23;20015;-85
2023/11/29 13:43:42;;;;;;;0.20;0.20;;;;;;;14.80;70.63;75410.56;6218625;23;20004;-83
2023/11/29 13:46:07;;;;;;;0.20;0.20;;;;;;;14.70;71.09;75398.56;6218661;23;20027;-84
2023/11/29 13:48:33;;;;;;;0.20;0.20;;;;;;;14.90;72.59;75423.13;6220484;23;20012;-85
2023/11/29 13:50:59;;;;;;;0.20;0.20;;;;;;;14.61;73.74;75389.00;6245951;23;20428;-85
2023/11/29 13:53:25;;;;;;;0.20;0.20;;;;;;;14.29;74.00;75356.81;6219214;23;20008;-85
2023/11/29 13:55:51;;;;;;;0.20;0.20;;;;;;;14.11;75.94;75329.66;6245541;23;20010;-82
2023/11/29 13:58:17;;;;;;;0.20;0.20;;;;;;;14.29;76.49;75353.44;6217953;23;20372;-84
2023/11/29 14:00:43;;;;;;;0.20;0.20;;;;;;;14.12;77.39;75331.47;6244401;23;20008;-85
2023/11/29 14:03:10;;;;;;;0.20;0.20;;;;;;;14.01;77.93;75317.69;6216902;23;20004;-85
2023/11/29 14:05:36;;;;;;;0.20;0.20;;;;;;;13.90;81.06;75305.13;6243352;23;20083;-86
2023/11/29 14:08:01;;;;;;;0.20;0.20;;;;;;;13.97;80.17;75318.47;6216721;23;20004;-86
2023/11/29 14:10:27;;;;;;;0.20;0.20;;;;;;;13.69;81.85;75285.53;6216472;23;20490;-86
2023/11/29 14:12:52;;;;;;;0.20;0.20;;;;;;;13.82;82.72;75301.72;6243444;23;20004;-85
2023/11/29 14:15:17;;;;;;;0.20;0.20;;;;;;;13.53;83.33;75267.59;6243057;23;20075;-86
2023/11/29 14:17:43;;;;;;;0.20;0.20;;;;;;;13.53;83.58;75270.38;6215914;23;20003;-85
2023/11/29 14:20:09;;;;;;;0.20;0.20;;;;;;;13.71;83.30;75282.38;6242830;22;20001;-85
2023/11/29 14:22:35;;;;;;;0.30;0.30;;;;;;;13.42;85.30;75251.03;6243481;23;20004;-86
2023/11/29 14:25:03;;;;;;;0.20;0.20;;;;;;;13.45;86.54;75249.69;6243447;23;20008;-86
2023/11/29 14:27:29;;;;;;;0.20;0.20;;;;;;;13.29;88.76;75233.31;6216054;23;20433;-86
2023/11/29 14:29:55;;;;;;;0.20;0.20;;;;;;;13.24;88.56;75227.31;6216150;23;20007;-85
2023/11/29 14:32:22;;;;;;;0.20;0.20;;;;;;;13.04;90.29;75210.09;6216499;23;20008;-86
2023/11/29 14:34:47;;;;;;;0.20;0.20;;;;;;;12.97;91.21;75201.13;6242846;23;20001;-85
2023/11/29 14:37:12;;;;;;;0.20;0.20;;;;;;;13.00;92.10;75205.34;6213819;23;20043;-85
2023/11/29 14:39:38;;;;;;;0.20;0.20;;;;;;;13.18;94.04;75225.66;6213759;23;20012;-86
2023/11/29 14:42:04;;;;;;;0.20;0.20;;;;;;;13.06;94.11;75206.97;6217229;23;20005;-83
2023/11/29 14:44:30;;;;;;;0.20;0.20;;;;;;;12.97;94.81;75198.97;6219960;23;20004;-83
2023/11/29 15:59:16;;;;;;;0.30;0.30;;;;;;;11.99;100.00;75086.28;6275117;22;20023;-81
2023/11/29 16:56:22;;;;;;;0.20;0.20;;;;;;;11.86;100.00;75071.34;6122545;23;20018;-81
2023/11/29 17:53:34;;;;;;;0.30;0.30;;;;;;;11.81;100.00;75068.09;6275217;22;20026;-81
2023/11/29 18:00:25;;;;;;;0.30;0.30;;;;;;;11.69;100.00;75045.44;6274471;22;20004;-81
2023/11/29 18:03:50;;;;;;;0.20;0.20;;;;;;;11.51;100.00;75025.13;6211982;23;20039;-80
2023/11/29 18:23:44;;;;;;;0.20;0.20;;;;;;;11.34;100.00;75007.56;6287018;22;20010;-81
2023/11/29 18:34:41;;;;;;;0.22;0.22;;;;;;;11.59;100.00;75039.63;6066349;23;20026;-81
2023/11/29 18:37:49;;;;;;;0.20;0.20;;;;;;;11.44;100.00;75016.75;6066298;23;20029;-81
2023/11/29 18:41:16;;;;;;;0.20;0.20;;;;;;;11.38;100.00;75015.13;5926190;24;20085;-81
2023/11/29 18:44:33;;;;;;;0.20;0.20;;;;;;;11.47;100.00;75025.88;6064104;23;20063;-81
2023/11/29 18:47:46;;;;;;;0.30;0.30;;;;;;;11.44;100.00;75022.28;6048086;23;20026;-81
2023/11/29 22:56:42;;;;;;;0.30;0.30;;;;;;;9.55;100.00;74800.06;6229676;22;20032;-87
2023/11/29 23:00:12;;;;;;;0.30;0.30;;;;;;;9.63;100.00;74809.63;6240637;23;20001;-85
2023/11/29 23:06:40;;;;;;;0.30;0.30;;;;;;;9.34;100.00;74775.59;6246009;22;20014;-85
2023/11/29 23:10:08;;;;;;;0.20;0.20;;;;;;;9.70;100.00;74815.22;6215479;22;20032;-85
2023/11/29 23:13:23;;;;;;;0.20;0.20;;;;;;;9.21;100.00;74760.66;6263330;22;19996;-85
2023/11/29 23:16:43;;;;;;;0.20;0.20;;;;;;;9.39;100.00;74782.16;6244309;23;19997;-85
